createdAt,value
2023-09-08T00:00:47.048Z,15.23
2023-09-08T00:03:15.308Z,15.22
2023-09-08T00:05:44.035Z,15.22
2023-09-08T00:08:12.771Z,15.22
2023-09-08T00:10:40.975Z,15.12
2023-09-08T00:13:10.691Z,15.02
2023-09-08T00:15:39.128Z,15.00
2023-09-08T00:18:07.461Z,14.96
2023-09-08T00:20:35.916Z,14.99
2023-09-08T00:23:04.123Z,14.74
2023-09-08T00:25:32.373Z,14.90
2023-09-08T00:28:00.690Z,14.81
2023-09-08T00:30:30.253Z,14.81
2023-09-08T00:32:58.648Z,14.81
2023-09-08T00:35:26.949Z,14.85
2023-09-08T00:37:55.208Z,14.76
2023-09-08T00:40:23.436Z,14.73
2023-09-08T00:42:51.657Z,14.80
2023-09-08T00:45:19.793Z,14.82
2023-09-08T00:47:49.518Z,14.78
2023-09-08T00:50:17.820Z,14.83
2023-09-08T00:52:46.022Z,14.72
2023-09-08T00:55:14.656Z,14.64
2023-09-08T00:57:42.880Z,14.69
2023-09-08T01:00:12.956Z,14.71
2023-09-08T01:02:41.424Z,14.77
2023-09-08T01:05:11.126Z,14.86
2023-09-08T01:07:39.533Z,14.80
2023-09-08T01:10:08.485Z,14.76
2023-09-08T01:12:37.196Z,14.70
2023-09-08T01:15:06.627Z,14.60
2023-09-08T01:17:35.910Z,14.51
2023-09-08T01:20:15.786Z,14.57
2023-09-08T01:22:58.352Z,14.53
2023-09-08T01:25:28.264Z,14.55
2023-09-08T01:27:58.490Z,14.50
2023-09-08T01:30:29.908Z,14.76
2023-09-08T01:32:58.946Z,14.89
2023-09-08T01:35:28.095Z,14.70
2023-09-08T01:37:56.258Z,14.67
2023-09-08T01:40:24.622Z,14.61
2023-09-08T01:42:54.213Z,14.51
2023-09-08T01:45:22.458Z,14.46
2023-09-08T01:47:50.713Z,14.39
2023-09-08T01:50:22.860Z,14.36
2023-09-08T01:52:51.250Z,14.41
2023-09-08T01:55:19.478Z,14.20
2023-09-08T01:57:47.804Z,14.23
2023-09-08T02:00:18.872Z,14.25
2023-09-08T02:02:47.119Z,14.56
2023-09-08T02:05:15.474Z,14.59
2023-09-08T02:07:44.205Z,14.48
2023-09-08T02:10:12.618Z,14.46
2023-09-08T02:12:41.084Z,14.37
2023-09-08T02:15:12.356Z,14.24
2023-09-08T02:17:42.181Z,14.14
2023-09-08T02:20:12.811Z,14.20
2023-09-08T02:22:41.047Z,14.16
2023-09-08T02:25:10.235Z,14.30
2023-09-08T02:27:38.662Z,14.39
2023-09-08T02:30:08.564Z,14.21
2023-09-08T02:32:37.072Z,14.41
2023-09-08T02:35:08.197Z,14.36
2023-09-08T02:37:37.199Z,14.31
2023-09-08T02:40:08.512Z,14.23
2023-09-08T02:42:38.163Z,14.34
2023-09-08T02:45:07.174Z,14.38
2023-09-08T02:47:35.653Z,14.34
2023-09-08T02:50:05.910Z,14.29
2023-09-08T02:52:36.716Z,14.30
2023-09-08T02:55:05.354Z,14.29
2023-09-08T02:57:33.499Z,14.23
2023-09-08T03:00:02.209Z,14.23
2023-09-08T03:02:30.731Z,14.13
2023-09-08T03:04:59.246Z,14.13
2023-09-08T03:07:28.055Z,14.00
2023-09-08T03:09:57.855Z,14.05
2023-09-08T03:12:26.109Z,13.86
2023-09-08T03:14:54.395Z,13.63
2023-09-08T03:17:24.630Z,13.69
2023-09-08T03:19:52.880Z,14.04
2023-09-08T03:22:21.121Z,14.14
2023-09-08T03:24:49.724Z,14.09
2023-09-08T03:27:19.658Z,14.10
2023-09-08T03:29:50.981Z,13.88
2023-09-08T03:32:19.275Z,13.91
2023-09-08T03:34:47.776Z,14.05
2023-09-08T03:37:16.670Z,13.81
2023-09-08T03:39:45.234Z,13.58
2023-09-08T03:42:14.540Z,13.50
2023-09-08T03:44:44.155Z,13.70
2023-09-08T03:47:12.454Z,13.82
2023-09-08T03:49:40.762Z,13.90
2023-09-08T03:52:09.022Z,14.10
2023-09-08T03:54:38.377Z,14.09
2023-09-08T03:57:06.850Z,13.93
2023-09-08T03:59:35.029Z,13.65
2023-09-08T04:02:04.848Z,13.85
2023-09-08T04:04:33.233Z,13.86
2023-09-08T04:07:01.793Z,13.56
2023-09-08T04:09:33.109Z,13.78
2023-09-08T04:12:01.406Z,13.88
2023-09-08T04:14:31.637Z,13.46
2023-09-08T04:16:59.901Z,13.69
2023-09-08T04:19:29.754Z,13.70
2023-09-08T04:21:58.046Z,13.69
2023-09-08T04:24:26.230Z,13.59
2023-09-08T04:26:54.678Z,13.33
2023-09-08T04:29:22.907Z,13.67
2023-09-08T04:31:51.144Z,13.72
2023-09-08T04:34:19.641Z,13.44
2023-09-08T04:36:52.861Z,13.65
2023-09-08T04:39:21.931Z,13.72
2023-09-08T04:41:50.400Z,13.75
2023-09-08T04:44:18.606Z,13.64
2023-09-08T04:46:47.082Z,13.69
2023-09-08T04:49:16.454Z,13.81
2023-09-08T04:51:45.246Z,13.47
2023-09-08T04:54:16.654Z,13.64
2023-09-08T04:56:46.774Z,13.71
2023-09-08T04:59:15.939Z,13.63
2023-09-08T05:01:44.782Z,13.87
2023-09-08T05:04:13.725Z,13.93
2023-09-08T05:06:42.345Z,14.11
2023-09-08T05:09:10.937Z,14.07
2023-09-08T05:11:40.958Z,14.19
2023-09-08T05:14:09.723Z,14.26
2023-09-08T05:16:40.696Z,14.35
2023-09-08T05:19:12.236Z,14.43
2023-09-08T05:21:41.131Z,14.58
2023-09-08T05:24:09.837Z,14.61
2023-09-08T05:26:40.837Z,14.55
2023-09-08T05:29:09.193Z,14.44
2023-09-08T05:31:37.445Z,14.49
2023-09-08T05:34:05.701Z,14.55
2023-09-08T05:36:37.112Z,14.71
2023-09-08T05:39:06.400Z,14.93
2023-09-08T05:41:34.978Z,15.01
2023-09-08T05:44:06.731Z,15.12
2023-09-08T05:46:35.293Z,15.17
2023-09-08T05:49:04.597Z,15.18
2023-09-08T05:51:33.984Z,15.37
2023-09-08T05:54:03.552Z,15.46
2023-09-08T05:56:32.922Z,15.65
2023-09-08T05:59:02.512Z,15.64
2023-09-08T06:01:33.935Z,15.72
2023-09-08T06:04:05.476Z,15.98
2023-09-08T06:06:35.847Z,15.98
2023-09-08T06:09:04.216Z,15.98
2023-09-08T06:11:33.940Z,16.14
2023-09-08T06:14:02.739Z,16.23
2023-09-08T06:16:38.727Z,16.36
2023-09-08T06:19:07.322Z,16.49
2023-09-08T06:21:35.514Z,16.45
2023-09-08T06:24:05.673Z,16.57
2023-09-08T06:26:34.288Z,16.62
2023-09-08T06:29:02.692Z,16.77
2023-09-08T06:31:31.871Z,16.77
2023-09-08T06:34:01.719Z,16.91
2023-09-08T06:36:31.718Z,16.97
2023-09-08T06:39:00.196Z,17.01
2023-09-08T06:41:29.851Z,17.33
2023-09-08T06:44:00.829Z,17.55
2023-09-08T06:46:30.633Z,17.58
2023-09-08T06:48:59.142Z,17.64
2023-09-08T06:51:29.220Z,17.63
2023-09-08T06:53:58.237Z,17.57
2023-09-08T06:56:31.174Z,17.68
2023-09-08T06:58:59.978Z,17.70
2023-09-08T07:01:28.743Z,17.68
2023-09-08T07:03:57.486Z,17.72
2023-09-08T07:06:25.948Z,17.95
2023-09-08T07:08:56.022Z,18.28
2023-09-08T07:11:24.319Z,18.50
2023-09-08T07:13:52.602Z,18.65
2023-09-08T07:16:21.529Z,18.74
2023-09-08T07:18:51.306Z,18.74
2023-09-08T07:21:19.520Z,18.69
2023-09-08T07:23:48.182Z,18.72
2023-09-08T07:26:19.015Z,18.96
2023-09-08T07:28:47.767Z,19.14
2023-09-08T07:31:17.562Z,19.24
2023-09-08T07:33:48.360Z,19.34
2023-09-08T07:36:17.713Z,19.46
2023-09-08T07:38:47.313Z,19.74
2023-09-08T07:41:16.120Z,19.74
2023-09-08T07:43:47.100Z,19.72
2023-09-08T07:46:18.515Z,19.64
2023-09-08T07:48:46.878Z,19.56
2023-09-08T07:51:15.154Z,19.67
2023-09-08T07:53:43.335Z,19.64
2023-09-08T07:56:11.702Z,19.79
2023-09-08T07:58:40.875Z,20.00
2023-09-08T08:01:10.562Z,20.21
2023-09-08T08:03:38.898Z,20.08
2023-09-08T08:06:07.480Z,20.34
2023-09-08T08:08:39.527Z,20.65
2023-09-08T08:11:12.249Z,20.76
2023-09-08T08:13:40.474Z,20.78
2023-09-08T08:16:10.280Z,20.97
2023-09-08T08:18:38.836Z,21.13
2023-09-08T08:21:07.509Z,21.46
2023-09-08T08:23:37.289Z,21.60
2023-09-08T08:26:05.809Z,21.83
2023-09-08T08:28:34.202Z,21.90
2023-09-08T08:31:02.610Z,22.32
2023-09-08T08:33:32.283Z,22.80
2023-09-08T08:36:00.534Z,23.09
2023-09-08T08:38:28.719Z,23.22
2023-09-08T08:40:56.941Z,23.23
2023-09-08T08:43:26.194Z,23.29
2023-09-08T08:45:55.194Z,23.88
2023-09-08T08:48:26.098Z,23.63
2023-09-08T08:50:56.409Z,24.05
2023-09-08T08:53:24.821Z,24.59
2023-09-08T08:55:54.745Z,24.32
2023-09-08T08:58:26.190Z,23.78
2023-09-08T09:00:57.045Z,24.07
2023-09-08T09:03:27.280Z,24.19
2023-09-08T09:05:57.106Z,23.76
2023-09-08T09:08:26.272Z,24.15
2023-09-08T09:10:54.558Z,23.98
2023-09-08T09:13:23.653Z,24.20
2023-09-08T09:15:53.056Z,24.83
2023-09-08T09:18:21.407Z,24.74
2023-09-08T09:20:57.494Z,24.66
2023-09-08T09:23:30.233Z,24.63
2023-09-08T09:25:58.854Z,24.88
2023-09-08T09:28:27.153Z,25.79
2023-09-08T09:30:56.580Z,26.36
2023-09-08T09:33:25.313Z,26.01
2023-09-08T09:35:56.514Z,26.61
2023-09-08T09:38:24.689Z,25.78
2023-09-08T09:40:53.774Z,26.42
2023-09-08T09:43:23.958Z,26.40
2023-09-08T09:45:52.455Z,26.16
2023-09-08T09:48:22.303Z,26.14
2023-09-08T09:50:50.667Z,26.52
2023-09-08T09:53:20.319Z,26.91
2023-09-08T09:55:48.581Z,27.16
2023-09-08T09:58:17.355Z,27.10
2023-09-08T10:00:49.655Z,26.56
2023-09-08T10:03:18.455Z,26.72
2023-09-08T10:05:49.347Z,27.11
2023-09-08T10:08:17.764Z,27.79
2023-09-08T10:10:49.453Z,27.61
2023-09-08T10:13:20.643Z,27.72
2023-09-08T10:15:51.074Z,27.89
2023-09-08T10:18:22.619Z,27.78
2023-09-08T10:20:51.554Z,27.62
2023-09-08T10:23:25.171Z,27.06
2023-09-08T10:25:58.211Z,26.99
2023-09-08T10:28:27.313Z,27.03
2023-09-08T10:30:55.962Z,26.64
2023-09-08T10:33:25.333Z,27.64
2023-09-08T10:35:53.805Z,28.54
2023-09-08T10:38:26.648Z,28.78
2023-09-08T10:41:14.433Z,28.53
2023-09-08T10:43:44.842Z,27.83
2023-09-08T10:46:13.455Z,27.86
2023-09-08T10:48:44.356Z,28.84
2023-09-08T10:51:15.474Z,29.23
2023-09-08T10:53:43.854Z,29.16
2023-09-08T10:56:18.249Z,28.70
2023-09-08T10:58:51.596Z,29.55
2023-09-08T11:01:23.896Z,29.89
2023-09-08T11:03:52.820Z,28.67
2023-09-08T11:06:23.335Z,28.49
2023-09-08T11:08:56.897Z,28.89
2023-09-08T11:11:27.136Z,27.46
2023-09-08T11:13:55.329Z,27.64
2023-09-08T11:16:30.611Z,27.71
2023-09-08T11:18:59.197Z,28.37
2023-09-08T11:21:28.139Z,29.08
2023-09-08T11:23:57.011Z,29.14
2023-09-08T11:26:27.527Z,29.23
2023-09-08T11:28:56.299Z,29.57
2023-09-08T11:31:24.525Z,28.38
2023-09-08T11:33:57.184Z,28.47
2023-09-08T11:36:25.438Z,29.23
2023-09-08T11:38:54.903Z,29.73
2023-09-08T11:41:24.997Z,29.92
2023-09-08T11:43:56.217Z,28.23
2023-09-08T11:46:24.564Z,28.87
2023-09-08T11:48:52.966Z,29.60
2023-09-08T11:51:25.446Z,29.64
2023-09-08T11:53:54.003Z,29.52
2023-09-08T11:56:22.417Z,29.01
2023-09-08T11:58:50.911Z,29.31
2023-09-08T12:01:20.960Z,30.01
2023-09-08T12:03:55.444Z,29.97
2023-09-08T12:06:27.026Z,29.58
2023-09-08T12:08:55.448Z,29.34
2023-09-08T12:11:23.883Z,28.90
2023-09-08T12:13:52.308Z,29.20
2023-09-08T12:16:23.551Z,28.40
2023-09-08T12:18:52.097Z,30.32
2023-09-08T12:21:20.470Z,30.45
2023-09-08T12:23:52.895Z,31.47
2023-09-08T12:26:21.133Z,32.25
2023-09-08T12:28:49.728Z,31.69
2023-09-08T12:31:19.581Z,30.63
2023-09-08T12:33:49.444Z,30.88
2023-09-08T12:36:18.853Z,30.23
2023-09-08T12:38:50.972Z,30.68
2023-09-08T12:41:19.291Z,30.49
2023-09-08T12:43:50.252Z,30.37
2023-09-08T12:46:19.621Z,29.83
2023-09-08T12:48:49.418Z,29.29
2023-09-08T12:51:17.558Z,30.21
2023-09-08T12:53:45.901Z,29.28
2023-09-08T12:56:14.182Z,29.52
2023-09-08T12:58:42.372Z,30.69
2023-09-08T13:01:12.118Z,30.93
2023-09-08T13:03:42.620Z,30.01
2023-09-08T13:06:13.455Z,30.28
2023-09-08T13:08:42.952Z,29.73
2023-09-08T13:11:11.527Z,29.21
2023-09-08T13:13:40.521Z,29.57
2023-09-08T13:16:11.144Z,30.21
2023-09-08T13:18:42.715Z,30.61
2023-09-08T13:21:14.853Z,29.82
2023-09-08T13:23:44.821Z,29.86
2023-09-08T13:26:14.135Z,31.12
2023-09-08T13:28:44.207Z,31.20
2023-09-08T13:31:15.368Z,30.36
2023-09-08T13:33:46.461Z,29.93
2023-09-08T13:36:19.023Z,30.38
2023-09-08T13:38:49.626Z,30.73
2023-09-08T13:41:20.404Z,30.82
2023-09-08T13:43:50.752Z,30.86
2023-09-08T13:46:21.768Z,30.65
2023-09-08T13:48:53.410Z,32.55
2023-09-08T13:51:27.706Z,32.58
2023-09-08T13:53:59.243Z,30.49
2023-09-08T13:56:33.049Z,30.40
2023-09-08T13:59:06.858Z,31.66
2023-09-08T14:01:43.825Z,31.94
2023-09-08T14:04:19.401Z,31.09
2023-09-08T14:06:59.647Z,29.90
2023-09-08T14:09:44.041Z,31.25
2023-09-08T14:12:31.814Z,31.63
2023-09-08T14:15:06.578Z,31.74
2023-09-08T14:17:37.648Z,31.64
2023-09-08T14:20:09.771Z,31.08
2023-09-08T14:22:42.530Z,29.44
2023-09-08T14:25:13.724Z,29.92
2023-09-08T14:27:44.955Z,29.96
2023-09-08T14:30:16.179Z,30.54
2023-09-08T14:32:48.754Z,30.39
2023-09-08T14:35:20.154Z,30.65
2023-09-08T14:37:52.894Z,30.40
2023-09-08T14:40:26.541Z,29.72
2023-09-08T14:42:57.816Z,28.86
2023-09-08T14:45:28.862Z,29.68
2023-09-08T14:48:01.617Z,30.99
2023-09-08T14:50:33.001Z,31.75
2023-09-08T14:53:05.630Z,30.75
2023-09-08T14:55:36.344Z,29.97
2023-09-08T14:58:08.084Z,29.94
2023-09-08T15:00:39.020Z,29.41
2023-09-08T15:03:10.239Z,29.57
2023-09-08T15:05:40.434Z,29.20
2023-09-08T15:08:12.702Z,29.21
2023-09-08T15:10:43.406Z,28.81
2023-09-08T15:13:14.562Z,29.49
2023-09-08T15:15:45.356Z,30.08
2023-09-08T15:18:16.317Z,29.96
2023-09-08T15:20:54.985Z,29.40
2023-09-08T15:23:28.212Z,29.20
2023-09-08T15:25:59.566Z,29.23
2023-09-08T15:28:30.511Z,29.64
2023-09-08T15:31:01.031Z,30.30
2023-09-08T15:33:33.035Z,30.90
2023-09-08T15:36:04.233Z,29.98
2023-09-08T15:38:36.922Z,29.44
2023-09-08T15:41:21.937Z,29.78
2023-09-08T15:43:54.422Z,29.34
2023-09-08T15:46:25.326Z,29.23
2023-09-08T15:48:55.947Z,29.54
2023-09-08T15:51:26.706Z,29.26
2023-09-08T15:54:01.014Z,28.49
2023-09-08T15:56:31.608Z,28.71
2023-09-08T15:59:02.830Z,28.77
2023-09-08T16:01:34.045Z,28.62
2023-09-08T16:04:08.795Z,28.88
2023-09-08T16:06:39.413Z,29.25
2023-09-08T16:09:15.514Z,28.66
2023-09-08T16:11:48.881Z,28.49
2023-09-08T16:14:20.747Z,28.39
2023-09-08T16:16:52.699Z,27.51
2023-09-08T16:19:24.254Z,27.21
2023-09-08T16:21:55.499Z,27.30
2023-09-08T16:24:29.677Z,27.09
2023-09-08T16:27:02.162Z,26.97
2023-09-08T16:29:33.415Z,26.73
2023-09-08T16:32:04.203Z,26.75
2023-09-08T16:34:35.829Z,26.98
2023-09-08T16:37:07.373Z,26.84
2023-09-08T16:39:40.295Z,26.34
2023-09-08T16:42:13.224Z,26.36
2023-09-08T16:44:45.612Z,26.43
2023-09-08T16:47:16.933Z,26.31
2023-09-08T16:49:50.415Z,26.18
2023-09-08T16:52:21.867Z,25.71
2023-09-08T16:54:54.542Z,25.45
2023-09-08T16:57:28.800Z,24.93
2023-09-08T17:00:02.683Z,24.72
2023-09-08T17:02:34.548Z,24.68
2023-09-08T17:05:06.137Z,24.66
2023-09-08T17:07:37.529Z,24.61
2023-09-08T17:10:11.627Z,24.45
2023-09-08T17:12:44.006Z,24.21
2023-09-08T17:15:15.858Z,24.14
2023-09-08T17:17:47.922Z,24.07
2023-09-08T17:20:20.030Z,23.78
2023-09-08T17:22:51.490Z,23.67
2023-09-08T17:25:24.384Z,23.52
2023-09-08T17:27:55.820Z,23.36
2023-09-08T17:30:31.865Z,23.20
2023-09-08T17:33:05.101Z,23.15
2023-09-08T17:35:40.065Z,23.14
2023-09-08T17:38:14.579Z,23.21
2023-09-08T17:40:52.269Z,22.93
2023-09-08T17:43:24.189Z,22.87
2023-09-08T17:45:59.813Z,22.78
2023-09-08T17:48:34.121Z,22.66
2023-09-08T17:51:06.335Z,22.69
2023-09-08T17:53:39.629Z,22.77
2023-09-08T17:56:13.138Z,22.78
2023-09-08T17:58:44.968Z,22.82
2023-09-08T18:01:17.002Z,22.97
2023-09-08T18:03:50.848Z,22.83
2023-09-08T18:06:22.993Z,22.60
2023-09-08T18:08:55.067Z,22.46
2023-09-08T18:11:29.845Z,22.15
2023-09-08T18:14:02.589Z,21.74
2023-09-08T18:16:36.978Z,21.53
2023-09-08T18:19:09.265Z,21.24
2023-09-08T18:21:43.043Z,21.18
2023-09-08T18:24:15.323Z,21.17
2023-09-08T18:26:50.386Z,20.98
2023-09-08T18:29:22.028Z,21.16
2023-09-08T18:31:53.976Z,21.04
2023-09-08T18:34:25.897Z,20.86
2023-09-08T18:36:57.735Z,20.94
2023-09-08T18:39:30.793Z,20.83
2023-09-08T18:42:05.628Z,20.66
2023-09-08T18:44:44.035Z,20.69
2023-09-08T18:47:17.151Z,20.33
2023-09-08T18:49:50.443Z,20.14
2023-09-08T18:52:25.923Z,20.13
2023-09-08T18:54:58.952Z,20.00
2023-09-08T18:57:32.996Z,19.93
2023-09-08T19:00:05.504Z,19.85
2023-09-08T19:02:39.203Z,19.77
2023-09-08T19:05:15.045Z,19.75
2023-09-08T19:07:48.852Z,19.75
2023-09-08T19:10:21.741Z,19.61
2023-09-08T19:12:57.644Z,19.37
2023-09-08T19:15:29.745Z,19.43
2023-09-08T19:18:02.592Z,19.29
2023-09-08T19:20:35.448Z,19.11
2023-09-08T19:23:08.363Z,19.19
2023-09-08T19:25:44.466Z,19.17
2023-09-08T19:28:18.423Z,19.13
2023-09-08T19:30:58.896Z,18.87
2023-09-08T19:33:34.900Z,18.69
2023-09-08T19:36:09.956Z,18.54
2023-09-08T19:38:42.608Z,18.52
2023-09-08T19:41:19.745Z,18.56
2023-09-08T19:43:58.069Z,18.57
2023-09-08T19:46:31.557Z,18.60
2023-09-08T19:49:07.608Z,18.48
2023-09-08T19:51:40.780Z,18.44
2023-09-08T19:54:15.099Z,18.34
2023-09-08T19:56:50.310Z,18.31
2023-09-08T19:59:26.989Z,18.24
2023-09-08T20:02:02.544Z,18.24
2023-09-08T20:04:38.277Z,18.27
2023-09-08T20:07:14.215Z,18.29
2023-09-08T20:09:46.271Z,18.22
2023-09-08T20:12:22.290Z,18.11
2023-09-08T20:14:56.108Z,18.08
2023-09-08T20:17:36.179Z,18.05
2023-09-08T20:20:10.028Z,18.08
2023-09-08T20:22:42.036Z,18.07
2023-09-08T20:25:16.848Z,17.86
2023-09-08T20:27:52.352Z,17.72
2023-09-08T20:30:27.049Z,17.72
2023-09-08T20:32:59.289Z,17.76
2023-09-08T20:35:33.455Z,17.78
2023-09-08T20:38:05.319Z,17.67
2023-09-08T20:40:37.397Z,17.65
2023-09-08T20:43:12.120Z,17.67
2023-09-08T20:45:46.342Z,17.60
2023-09-08T20:48:20.201Z,17.50
2023-09-08T20:50:52.536Z,17.32
2023-09-08T20:53:24.166Z,17.27
2023-09-08T20:55:55.753Z,17.15
2023-09-08T20:58:30.186Z,17.15
2023-09-08T21:01:05.031Z,17.15
2023-09-08T21:03:36.435Z,17.20
2023-09-08T21:06:07.311Z,17.15
2023-09-08T21:08:36.986Z,17.02
2023-09-08T21:11:06.033Z,16.93
2023-09-08T21:13:35.378Z,16.97
2023-09-08T21:16:05.458Z,16.95
2023-09-08T21:18:33.908Z,16.92
2023-09-08T21:21:02.112Z,16.99
2023-09-08T21:23:30.272Z,16.84
2023-09-08T21:25:58.724Z,16.93
2023-09-08T21:28:27.058Z,16.94
2023-09-08T21:31:08.515Z,16.87
2023-09-08T21:33:38.306Z,16.84
2023-09-08T21:36:07.658Z,16.83
2023-09-08T21:38:36.229Z,16.79
2023-09-08T21:41:08.470Z,16.74
2023-09-08T21:43:36.957Z,16.72
2023-09-08T21:46:07.688Z,16.75
2023-09-08T21:48:37.411Z,16.56
2023-09-08T21:51:06.069Z,16.84
2023-09-08T21:53:34.554Z,16.85
2023-09-08T21:56:02.899Z,16.76
2023-09-08T21:58:31.297Z,16.80
2023-09-08T22:00:59.724Z,16.77
2023-09-08T22:03:29.522Z,16.67
2023-09-08T22:05:57.977Z,16.54
2023-09-08T22:08:26.214Z,16.49
2023-09-08T22:10:54.799Z,16.42
2023-09-08T22:13:23.005Z,16.41
2023-09-08T22:15:51.536Z,16.42
2023-09-08T22:18:19.772Z,16.36
2023-09-08T22:20:56.221Z,16.41
2023-09-08T22:23:24.365Z,16.30
2023-09-08T22:25:54.269Z,16.40
2023-09-08T22:28:22.570Z,16.38
2023-09-08T22:30:50.812Z,16.27
2023-09-08T22:33:19.236Z,16.23
2023-09-08T22:35:47.535Z,16.14
2023-09-08T22:38:17.685Z,16.06
2023-09-08T22:40:46.475Z,16.01
2023-09-08T22:43:14.800Z,16.04
2023-09-08T22:45:44.080Z,16.04
2023-09-08T22:48:12.436Z,16.02
2023-09-08T22:50:41.249Z,15.96
2023-09-08T22:53:11.455Z,15.99
2023-09-08T22:55:41.736Z,15.92
2023-09-08T22:58:10.010Z,15.91
2023-09-08T23:00:38.202Z,15.98
2023-09-08T23:03:06.610Z,16.12
2023-09-08T23:05:34.863Z,15.86
2023-09-08T23:08:03.178Z,15.68
2023-09-08T23:10:31.452Z,15.65
2023-09-08T23:13:01.180Z,15.87
2023-09-08T23:15:29.973Z,16.02
2023-09-08T23:17:58.890Z,16.12
2023-09-08T23:20:27.211Z,16.06
2023-09-08T23:22:55.416Z,16.05
2023-09-08T23:25:23.712Z,15.84
2023-09-08T23:27:51.896Z,15.85
2023-09-08T23:30:21.833Z,15.77
2023-09-08T23:32:50.136Z,15.55
2023-09-08T23:35:18.391Z,15.51
2023-09-08T23:37:46.768Z,15.48
2023-09-08T23:40:15.041Z,15.61
2023-09-08T23:42:43.288Z,15.51
2023-09-08T23:45:12.451Z,15.73
2023-09-08T23:47:42.109Z,15.79
2023-09-08T23:50:10.896Z,15.82
2023-09-08T23:52:39.208Z,15.90
2023-09-08T23:55:08.133Z,15.70
2023-09-08T23:57:36.766Z,15.65
